Holsbeek, Belgium
Current Conditions -  °F | °C
As of 10:50 AM on Friday 19 Dec 2014 (Local Time) from EBBR Reporting Station
Light Rain Light Rain  
Wind Chill: 52°   Ceiling: 1000
Heat Index: 52°   Visibility: 4mi
Dew Point: 48°   Wind: 23mph
Humidity: 88%   Direction: 230°SW
Pressure: 29.88"   Gusts: NA
Location:  50.92°N, 4.76°E
Report Text: EBBR 190950Z 23020KT 7000 -RA FEW007 BKN010 11/09 Q1012 TEMPO 23022G32KT 4000 RA BKN009
Loading
Personal Weather Stations






























Interactive Weather Map New forecast layout! Learn more

10-Day Weather Forecast

Advertisements
Track Severe Weather on mobile